sensor_id;sensor_type;location;lat;lon;timestamp;pressure;altitude;pressure_sealevel;temperature;humidity
48824;BME280;34640;53.590;10.054;2024-02-26T00:01:31;99999.50;;;5.90;100.00
48824;BME280;34640;53.590;10.054;2024-02-26T00:04:05;100006.38;;;5.90;100.00
48824;BME280;34640;53.590;10.054;2024-02-26T00:06:39;100005.81;;;5.82;100.00
48824;BME280;34640;53.590;10.054;2024-02-26T00:09:13;100002.94;;;5.77;100.00
48824;BME280;34640;53.590;10.054;2024-02-26T00:11:46;100005.31;;;5.74;100.00
48824;BME280;34640;53.590;10.054;2024-02-26T00:14:21;100000.75;;;5.70;100.00
48824;BME280;34640;53.590;10.054;2024-02-26T00:16:57;100004.91;;;5.68;100.00
48824;BME280;34640;53.590;10.054;2024-02-26T00:19:30;100002.13;;;5.65;100.00
48824;BME280;34640;53.590;10.054;2024-02-26T00:22:03;100003.09;;;5.54;100.00
48824;BME280;34640;53.590;10.054;2024-02-26T00:24:37;100003.69;;;5.50;100.00
48824;BME280;34640;53.590;10.054;2024-02-26T00:27:10;100005.88;;;5.44;100.00
48824;BME280;34640;53.590;10.054;2024-02-26T00:29:47;100006.13;;;5.35;100.00
48824;BME280;34640;53.590;10.054;2024-02-26T00:32:20;99999.97;;;5.33;100.00
48824;BME280;34640;53.590;10.054;2024-02-26T00:34:53;99994.22;;;5.37;100.00
48824;BME280;34640;53.590;10.054;2024-02-26T00:37:26;99995.19;;;5.39;100.00
48824;BME280;34640;53.590;10.054;2024-02-26T00:39:59;99996.38;;;5.31;100.00
48824;BME280;34640;53.590;10.054;2024-02-26T00:42:35;100001.94;;;5.24;100.00
48824;BME280;34640;53.590;10.054;2024-02-26T00:45:10;99996.91;;;5.14;100.00
48824;BME280;34640;53.590;10.054;2024-02-26T00:47:45;99999.97;;;5.08;100.00
48824;BME280;34640;53.590;10.054;2024-02-26T00:50:19;100004.53;;;4.99;100.00
48824;BME280;34640;53.590;10.054;2024-02-26T00:52:53;100000.59;;;4.93;100.00
48824;BME280;34640;53.590;10.054;2024-02-26T00:55:26;100003.38;;;4.96;100.00
48824;BME280;34640;53.590;10.054;2024-02-26T00:57:59;99999.56;;;5.02;100.00
48824;BME280;34640;53.590;10.054;2024-02-26T01:00:34;100007.50;;;5.05;100.00
48824;BME280;34640;53.590;10.054;2024-02-26T01:03:10;100000.34;;;5.01;100.00
48824;BME280;34640;53.590;10.054;2024-02-26T01:05:45;100000.91;;;4.97;100.00
48824;BME280;34640;53.590;10.054;2024-02-26T01:08:18;100003.72;;;5.00;100.00
48824;BME280;34640;53.590;10.054;2024-02-26T01:10:54;99996.03;;;4.88;100.00
48824;BME280;34640;53.590;10.054;2024-02-26T01:13:28;99998.28;;;4.84;100.00
48824;BME280;34640;53.590;10.054;2024-02-26T01:16:04;100009.09;;;4.78;100.00
48824;BME280;34640;53.590;10.054;2024-02-26T01:18:37;100004.03;;;4.68;100.00
48824;BME280;34640;53.590;10.054;2024-02-26T01:21:11;100005.03;;;4.70;100.00
48824;BME280;34640;53.590;10.054;2024-02-26T01:23:44;100015.38;;;4.70;100.00
48824;BME280;34640;53.590;10.054;2024-02-26T01:26:18;100016.47;;;4.74;100.00
48824;BME280;34640;53.590;10.054;2024-02-26T01:28:51;100011.88;;;4.70;100.00
48824;BME280;34640;53.590;10.054;2024-02-26T01:31:28;100019.84;;;4.73;100.00
48824;BME280;34640;53.590;10.054;2024-02-26T01:34:03;100009.41;;;4.71;100.00
48824;BME280;34640;53.590;10.054;2024-02-26T01:36:37;100012.78;;;4.70;100.00
48824;BME280;34640;53.590;10.054;2024-02-26T01:39:13;100011.69;;;4.67;100.00
48824;BME280;34640;53.590;10.054;2024-02-26T01:41:46;100009.88;;;4.66;100.00
48824;BME280;34640;53.590;10.054;2024-02-26T01:44:20;100009.00;;;4.65;100.00
48824;BME280;34640;53.590;10.054;2024-02-26T01:46:55;100012.34;;;4.64;100.00
48824;BME280;34640;53.590;10.054;2024-02-26T01:49:29;100017.31;;;4.61;100.00
48824;BME280;34640;53.590;10.054;2024-02-26T01:52:04;100027.72;;;4.63;100.00
48824;BME280;34640;53.590;10.054;2024-02-26T01:54:39;100019.22;;;4.52;100.00
48824;BME280;34640;53.590;10.054;2024-02-26T01:57:13;100019.88;;;4.49;100.00
48824;BME280;34640;53.590;10.054;2024-02-26T01:59:47;100021.56;;;4.49;100.00
48824;BME280;34640;53.590;10.054;2024-02-26T02:02:22;100019.88;;;4.49;100.00
48824;BME280;34640;53.590;10.054;2024-02-26T02:04:56;100023.38;;;4.50;100.00
48824;BME280;34640;53.590;10.054;2024-02-26T02:07:30;100017.78;;;4.44;100.00
48824;BME280;34640;53.590;10.054;2024-02-26T02:10:05;100017.13;;;4.35;100.00
48824;BME280;34640;53.590;10.054;2024-02-26T02:12:39;100015.66;;;4.38;100.00
48824;BME280;34640;53.590;10.054;2024-02-26T02:15:14;100022.50;;;4.38;100.00
48824;BME280;34640;53.590;10.054;2024-02-26T02:17:49;100017.88;;;4.34;100.00
48824;BME280;34640;53.590;10.054;2024-02-26T02:20:26;100011.50;;;4.28;100.00
48824;BME280;34640;53.590;10.054;2024-02-26T02:23:04;100008.72;;;4.25;100.00
48824;BME280;34640;53.590;10.054;2024-02-26T02:25:38;100018.13;;;4.25;100.00
48824;BME280;34640;53.590;10.054;2024-02-26T02:28:12;100016.44;;;4.25;100.00
48824;BME280;34640;53.590;10.054;2024-02-26T02:30:46;100022.06;;;4.20;100.00
48824;BME280;34640;53.590;10.054;2024-02-26T02:33:25;100019.38;;;4.18;100.00
48824;BME280;34640;53.590;10.054;2024-02-26T02:36:02;100025.31;;;4.17;100.00
48824;BME280;34640;53.590;10.054;2024-02-26T02:38:36;100021.75;;;4.15;100.00
48824;BME280;34640;53.590;10.054;2024-02-26T02:41:09;100025.22;;;4.16;100.00
48824;BME280;34640;53.590;10.054;2024-02-26T02:43:43;100019.16;;;4.15;100.00
48824;BME280;34640;53.590;10.054;2024-02-26T02:46:16;100024.31;;;4.15;100.00
48824;BME280;34640;53.590;10.054;2024-02-26T02:48:50;100026.78;;;4.14;100.00
48824;BME280;34640;53.590;10.054;2024-02-26T02:51:26;100028.47;;;4.13;100.00
48824;BME280;34640;53.590;10.054;2024-02-26T02:53:59;100030.00;;;4.11;100.00
48824;BME280;34640;53.590;10.054;2024-02-26T02:56:33;100032.84;;;4.14;100.00
48824;BME280;34640;53.590;10.054;2024-02-26T02:59:08;100025.63;;;4.10;100.00
48824;BME280;34640;53.590;10.054;2024-02-26T03:01:41;100035.16;;;4.11;100.00
48824;BME280;34640;53.590;10.054;2024-02-26T03:04:16;100039.19;;;4.08;100.00
48824;BME280;34640;53.590;10.054;2024-02-26T03:06:51;100042.13;;;4.12;100.00
48824;BME280;34640;53.590;10.054;2024-02-26T03:09:25;100048.03;;;4.11;100.00
48824;BME280;34640;53.590;10.054;2024-02-26T03:11:58;100041.78;;;4.08;100.00
48824;BME280;34640;53.590;10.054;2024-02-26T03:14:31;100036.50;;;4.06;100.00
48824;BME280;34640;53.590;10.054;2024-02-26T03:17:05;100038.06;;;4.04;100.00
48824;BME280;34640;53.590;10.054;2024-02-26T03:19:39;100031.81;;;4.01;100.00
48824;BME280;34640;53.590;10.054;2024-02-26T03:22:13;100045.72;;;3.91;100.00
48824;BME280;34640;53.590;10.054;2024-02-26T03:24:49;100047.50;;;3.92;100.00
48824;BME280;34640;53.590;10.054;2024-02-26T03:27:23;100039.09;;;3.94;100.00
48824;BME280;34640;53.590;10.054;2024-02-26T03:29:57;100036.63;;;3.96;100.00
48824;BME280;34640;53.590;10.054;2024-02-26T03:32:33;100039.53;;;4.01;100.00
48824;BME280;34640;53.590;10.054;2024-02-26T03:35:07;100047.84;;;3.96;100.00
48824;BME280;34640;53.590;10.054;2024-02-26T03:37:43;100036.84;;;3.99;100.00
48824;BME280;34640;53.590;10.054;2024-02-26T03:40:16;100051.41;;;3.98;100.00
48824;BME280;34640;53.590;10.054;2024-02-26T03:42:51;100047.94;;;3.98;100.00
48824;BME280;34640;53.590;10.054;2024-02-26T03:45:25;100051.41;;;3.98;100.00
48824;BME280;34640;53.590;10.054;2024-02-26T03:47:59;100060.72;;;3.96;100.00
48824;BME280;34640;53.590;10.054;2024-02-26T03:50:33;100052.97;;;3.96;100.00
48824;BME280;34640;53.590;10.054;2024-02-26T03:53:07;100059.94;;;3.97;100.00
48824;BME280;34640;53.590;10.054;2024-02-26T03:55:45;100072.47;;;3.93;100.00
48824;BME280;34640;53.590;10.054;2024-02-26T03:58:18;100075.16;;;3.94;100.00
48824;BME280;34640;53.590;10.054;2024-02-26T04:00:52;100084.44;;;3.92;100.00
48824;BME280;34640;53.590;10.054;2024-02-26T04:03:25;100087.13;;;3.94;100.00
48824;BME280;34640;53.590;10.054;2024-02-26T04:05:59;100088.03;;;3.94;100.00
48824;BME280;34640;53.590;10.054;2024-02-26T04:08:33;100088.25;;;3.97;100.00
48824;BME280;34640;53.590;10.054;2024-02-26T04:11:07;100091.38;;;3.93;100.00
48824;BME280;34640;53.590;10.054;2024-02-26T04:13:40;100096.66;;;3.95;100.00
48824;BME280;34640;53.590;10.054;2024-02-26T04:16:13;100100.81;;;3.93;100.00
48824;BME280;34640;53.590;10.054;2024-02-26T04:18:46;100102.56;;;3.82;100.00
48824;BME280;34640;53.590;10.054;2024-02-26T04:21:20;100107.38;;;3.78;100.00
48824;BME280;34640;53.590;10.054;2024-02-26T04:23:54;100102.31;;;3.79;100.00
48824;BME280;34640;53.590;10.054;2024-02-26T04:26:27;100109.03;;;3.77;100.00
48824;BME280;34640;53.590;10.054;2024-02-26T04:29:01;100124.38;;;3.76;100.00
48824;BME280;34640;53.590;10.054;2024-02-26T04:31:34;100121.97;;;3.67;100.00
48824;BME280;34640;53.590;10.054;2024-02-26T04:34:07;100124.66;;;3.68;100.00
48824;BME280;34640;53.590;10.054;2024-02-26T04:36:45;100131.66;;;3.70;100.00
48824;BME280;34640;53.590;10.054;2024-02-26T04:39:21;100134.69;;;3.76;100.00
48824;BME280;34640;53.590;10.054;2024-02-26T04:41:55;100145.44;;;3.82;100.00
48824;BME280;34640;53.590;10.054;2024-02-26T04:44:29;100142.84;;;3.82;100.00
48824;BME280;34640;53.590;10.054;2024-02-26T04:47:02;100147.78;;;3.79;100.00
48824;BME280;34640;53.590;10.054;2024-02-26T04:49:36;100146.75;;;3.77;100.00
48824;BME280;34640;53.590;10.054;2024-02-26T04:52:11;100146.31;;;3.71;100.00
48824;BME280;34640;53.590;10.054;2024-02-26T04:54:46;100150.56;;;3.70;100.00
48824;BME280;34640;53.590;10.054;2024-02-26T04:57:19;100159.59;;;3.65;100.00
48824;BME280;34640;53.590;10.054;2024-02-26T04:59:52;100161.38;;;3.66;100.00
48824;BME280;34640;53.590;10.054;2024-02-26T05:02:25;100164.97;;;3.68;100.00
48824;BME280;34640;53.590;10.054;2024-02-26T05:05:00;100166.63;;;3.67;100.00
48824;BME280;34640;53.590;10.054;2024-02-26T05:07:39;100173.78;;;3.60;100.00
48824;BME280;34640;53.590;10.054;2024-02-26T05:10:13;100169.06;;;3.54;100.00
48824;BME280;34640;53.590;10.054;2024-02-26T05:12:47;100175.47;;;3.59;100.00
48824;BME280;34640;53.590;10.054;2024-02-26T05:15:21;100177.13;;;3.59;100.00
48824;BME280;34640;53.590;10.054;2024-02-26T05:17:54;100174.03;;;3.63;100.00
48824;BME280;34640;53.590;10.054;2024-02-26T05:20:28;100176.81;;;3.66;100.00
48824;BME280;34640;53.590;10.054;2024-02-26T05:23:01;100176.72;;;3.64;100.00
48824;BME280;34640;53.590;10.054;2024-02-26T05:25:36;100174.13;;;3.64;100.00
48824;BME280;34640;53.590;10.054;2024-02-26T05:28:10;100182.09;;;3.67;100.00
48824;BME280;34640;53.590;10.054;2024-02-26T05:30:43;100186.22;;;3.65;100.00
48824;BME280;34640;53.590;10.054;2024-02-26T05:33:16;100186.22;;;3.65;100.00
48824;BME280;34640;53.590;10.054;2024-02-26T05:35:50;100188.78;;;3.65;100.00
48824;BME280;34640;53.590;10.054;2024-02-26T05:38:23;100189.97;;;3.69;100.00
48824;BME280;34640;53.590;10.054;2024-02-26T05:40:58;100190.72;;;3.68;100.00
48824;BME280;34640;53.590;10.054;2024-02-26T05:43:31;100193.44;;;3.70;100.00
48824;BME280;34640;53.590;10.054;2024-02-26T05:46:04;100197.53;;;3.67;100.00
48824;BME280;34640;53.590;10.054;2024-02-26T05:48:38;100198.31;;;3.66;100.00
48824;BME280;34640;53.590;10.054;2024-02-26T05:51:13;100203.34;;;3.65;100.00
48824;BME280;34640;53.590;10.054;2024-02-26T05:53:46;100202.56;;;3.66;100.00
48824;BME280;34640;53.590;10.054;2024-02-26T05:56:28;100205.31;;;3.79;100.00
48824;BME280;34640;53.590;10.054;2024-02-26T05:59:01;100198.69;;;3.71;100.00
48824;BME280;34640;53.590;10.054;2024-02-26T06:01:35;100205.94;;;3.65;100.00
48824;BME280;34640;53.590;10.054;2024-02-26T06:04:08;100216.59;;;3.70;100.00
48824;BME280;34640;53.590;10.054;2024-02-26T06:06:41;100222.03;;;3.62;100.00
48824;BME280;34640;53.590;10.054;2024-02-26T06:09:15;100224.84;;;3.65;100.00
48824;BME280;34640;53.590;10.054;2024-02-26T06:11:49;100229.22;;;3.66;100.00
48824;BME280;34640;53.590;10.054;2024-02-26T06:14:22;100229.22;;;3.66;100.00
48824;BME280;34640;53.590;10.054;2024-02-26T06:16:56;100233.84;;;3.71;100.00
48824;BME280;34640;53.590;10.054;2024-02-26T06:19:29;100234.97;;;3.74;100.00
48824;BME280;34640;53.590;10.054;2024-02-26T06:22:03;100235.25;;;3.67;100.00
48824;BME280;34640;53.590;10.054;2024-02-26T06:24:36;100240.00;;;3.73;100.00
48824;BME280;34640;53.590;10.054;2024-02-26T06:27:11;100245.03;;;3.71;100.00
48824;BME280;34640;53.590;10.054;2024-02-26T06:29:44;100241.16;;;3.54;100.00
48824;BME280;34640;53.590;10.054;2024-02-26T06:32:17;100241.28;;;3.46;100.00
48824;BME280;34640;53.590;10.054;2024-02-26T06:34:54;100237.19;;;3.48;100.00
48824;BME280;34640;53.590;10.054;2024-02-26T06:37:28;100245.03;;;3.49;100.00
48824;BME280;34640;53.590;10.054;2024-02-26T06:40:04;100250.19;;;3.49;100.00
48824;BME280;34640;53.590;10.054;2024-02-26T06:42:39;100248.13;;;3.45;100.00
48824;BME280;34640;53.590;10.054;2024-02-26T06:45:13;100242.97;;;3.45;100.00
48824;BME280;34640;53.590;10.054;2024-02-26T06:47:46;100256.81;;;3.35;100.00
48824;BME280;34640;53.590;10.054;2024-02-26T06:50:23;100251.34;;;3.43;100.00
48824;BME280;34640;53.590;10.054;2024-02-26T06:52:57;100249.78;;;3.45;100.00
48824;BME280;34640;53.590;10.054;2024-02-26T06:55:32;100250.56;;;3.44;100.00
48824;BME280;34640;53.590;10.054;2024-02-26T06:58:08;100257.63;;;3.46;100.00
48824;BME280;34640;53.590;10.054;2024-02-26T07:00:41;100260.88;;;3.44;100.00
48824;BME280;34640;53.590;10.054;2024-02-26T07:03:14;100269.78;;;3.37;100.00
48824;BME280;34640;53.590;10.054;2024-02-26T07:05:47;100267.22;;;3.37;100.00
48824;BME280;34640;53.590;10.054;2024-02-26T07:08:21;100257.69;;;3.36;100.00
48824;BME280;34640;53.590;10.054;2024-02-26T07:10:54;100271.00;;;3.52;100.00
48824;BME280;34640;53.590;10.054;2024-02-26T07:13:37;100277.66;;;3.60;100.00
48824;BME280;34640;53.590;10.054;2024-02-26T07:16:10;100276.06;;;3.41;100.00
48824;BME280;34640;53.590;10.054;2024-02-26T07:18:43;100274.25;;;3.50;100.00
48824;BME280;34640;53.590;10.054;2024-02-26T07:21:16;100274.84;;;3.57;100.00
48824;BME280;34640;53.590;10.054;2024-02-26T07:23:50;100283.69;;;3.61;100.00
48824;BME280;34640;53.590;10.054;2024-02-26T07:26:23;100281.47;;;3.65;100.00
48824;BME280;34640;53.590;10.054;2024-02-26T07:28:59;100282.88;;;3.72;100.00
48824;BME280;34640;53.590;10.054;2024-02-26T07:31:33;100284.72;;;3.85;100.00
48824;BME280;34640;53.590;10.054;2024-02-26T07:34:06;100288.81;;;3.93;100.00
48824;BME280;34640;53.590;10.054;2024-02-26T07:36:40;100294.91;;;4.05;100.00
48824;BME280;34640;53.590;10.054;2024-02-26T07:39:13;100296.69;;;4.06;100.00
48824;BME280;34640;53.590;10.054;2024-02-26T07:41:46;100306.06;;;4.16;100.00
48824;BME280;34640;53.590;10.054;2024-02-26T07:44:25;100297.53;;;4.17;100.00
48824;BME280;34640;53.590;10.054;2024-02-26T07:46:58;100302.25;;;4.22;100.00
48824;BME280;34640;53.590;10.054;2024-02-26T07:49:31;100310.69;;;4.32;100.00
48824;BME280;34640;53.590;10.054;2024-02-26T07:52:09;100312.06;;;4.38;100.00
48824;BME280;34640;53.590;10.054;2024-02-26T07:54:42;100317.69;;;4.44;100.00
48824;BME280;34640;53.590;10.054;2024-02-26T07:57:15;100318.34;;;4.42;100.00
48824;BME280;34640;53.590;10.054;2024-02-26T07:59:50;100326.09;;;4.53;100.00
48824;BME280;34640;53.590;10.054;2024-02-26T08:02:24;100332.00;;;4.63;100.00
48824;BME280;34640;53.590;10.054;2024-02-26T08:04:58;100329.31;;;4.73;100.00
48824;BME280;34640;53.590;10.054;2024-02-26T08:07:31;100329.91;;;4.80;100.00
48824;BME280;34640;53.590;10.054;2024-02-26T08:10:04;100338.44;;;4.91;100.00
48824;BME280;34640;53.590;10.054;2024-02-26T08:12:37;100339.09;;;4.88;100.00
48824;BME280;34640;53.590;10.054;2024-02-26T08:15:11;100338.75;;;4.96;100.00
48824;BME280;34640;53.590;10.054;2024-02-26T08:17:44;100343.72;;;5.04;100.00
48824;BME280;34640;53.590;10.054;2024-02-26T08:20:21;100337.44;;;5.01;100.00
48824;BME280;34640;53.590;10.054;2024-02-26T08:22:54;100340.69;;;5.10;100.00
48824;BME280;34640;53.590;10.054;2024-02-26T08:25:27;100343.84;;;5.17;100.00
48824;BME280;34640;53.590;10.054;2024-02-26T08:28:01;100339.91;;;5.11;100.00
48824;BME280;34640;53.590;10.054;2024-02-26T08:30:36;100342.84;;;5.15;100.00
48824;BME280;34640;53.590;10.054;2024-02-26T08:33:09;100339.56;;;5.18;100.00
48824;BME280;34640;53.590;10.054;2024-02-26T08:35:43;100348.00;;;5.27;100.00
48824;BME280;34640;53.590;10.054;2024-02-26T08:38:16;100346.66;;;5.32;100.00
48824;BME280;34640;53.590;10.054;2024-02-26T08:40:49;100350.38;;;5.24;100.00
48824;BME280;34640;53.590;10.054;2024-02-26T08:43:22;100353.28;;;5.29;100.00
48824;BME280;34640;53.590;10.054;2024-02-26T08:45:57;100358.91;;;5.35;100.00
48824;BME280;34640;53.590;10.054;2024-02-26T08:48:31;100365.06;;;5.37;100.00
48824;BME280;34640;53.590;10.054;2024-02-26T08:51:05;100361.25;;;5.32;100.00
48824;BME280;34640;53.590;10.054;2024-02-26T08:53:39;100374.38;;;5.35;100.00
48824;BME280;34640;53.590;10.054;2024-02-26T08:56:14;100365.53;;;5.31;100.00
48824;BME280;34640;53.590;10.054;2024-02-26T08:58:50;100368.00;;;5.30;100.00
48824;BME280;34640;53.590;10.054;2024-02-26T09:01:31;100362.81;;;5.30;100.00
48824;BME280;34640;53.590;10.054;2024-02-26T09:04:04;100362.38;;;5.24;100.00
48824;BME280;34640;53.590;10.054;2024-02-26T09:06:37;100372.50;;;5.44;100.00
48824;BME280;34640;53.590;10.054;2024-02-26T09:09:10;100375.53;;;5.50;100.00
48824;BME280;34640;53.590;10.054;2024-02-26T09:11:44;100375.50;;;5.73;100.00
48824;BME280;34640;53.590;10.054;2024-02-26T09:14:17;100375.16;;;5.80;100.00
48824;BME280;34640;53.590;10.054;2024-02-26T09:16:55;100387.53;;;5.96;100.00
48824;BME280;34640;53.590;10.054;2024-02-26T09:19:28;100389.41;;;6.10;100.00
48824;BME280;34640;53.590;10.054;2024-02-26T09:22:02;100386.16;;;6.01;100.00
48824;BME280;34640;53.590;10.054;2024-02-26T09:24:36;100398.28;;;6.14;100.00
48824;BME280;34640;53.590;10.054;2024-02-26T09:27:09;100389.53;;;6.12;100.00
48824;BME280;34640;53.590;10.054;2024-02-26T09:29:43;100392.00;;;6.10;100.00
48824;BME280;34640;53.590;10.054;2024-02-26T09:32:17;100398.59;;;6.19;100.00
48824;BME280;34640;53.590;10.054;2024-02-26T09:34:51;100399.50;;;6.19;100.00
48824;BME280;34640;53.590;10.054;2024-02-26T09:37:24;100394.72;;;6.37;100.00
48824;BME280;34640;53.590;10.054;2024-02-26T09:39:58;100400.00;;;6.38;100.00
48824;BME280;34640;53.590;10.054;2024-02-26T09:42:31;100406.38;;;6.43;100.00
48824;BME280;34640;53.590;10.054;2024-02-26T09:45:06;100404.38;;;6.51;100.00
48824;BME280;34640;53.590;10.054;2024-02-26T09:47:45;100405.56;;;6.56;100.00
48824;BME280;34640;53.590;10.054;2024-02-26T09:50:21;100405.78;;;6.59;100.00
48824;BME280;34640;53.590;10.054;2024-02-26T09:52:56;100401.88;;;6.53;100.00
48824;BME280;34640;53.590;10.054;2024-02-26T09:55:31;100413.34;;;6.44;100.00
48824;BME280;34640;53.590;10.054;2024-02-26T09:58:05;100404.50;;;6.41;100.00
48824;BME280;34640;53.590;10.054;2024-02-26T10:00:39;100414.63;;;6.38;100.00
48824;BME280;34640;53.590;10.054;2024-02-26T10:03:15;100416.22;;;6.61;100.00
48824;BME280;34640;53.590;10.054;2024-02-26T10:05:50;100421.13;;;6.69;100.00
48824;BME280;34640;53.590;10.054;2024-02-26T10:08:27;100418.41;;;6.80;100.00
48824;BME280;34640;53.590;10.054;2024-02-26T10:11:00;100422.59;;;6.78;100.00
48824;BME280;34640;53.590;10.054;2024-02-26T10:13:34;100421.09;;;6.81;100.00
48824;BME280;34640;53.590;10.054;2024-02-26T10:16:07;100424.50;;;6.93;100.00
48824;BME280;34640;53.590;10.054;2024-02-26T10:18:50;100426.16;;;7.04;100.00
48824;BME280;34640;53.590;10.054;2024-02-26T10:21:30;100418.78;;;6.97;100.00
48824;BME280;34640;53.590;10.054;2024-02-26T10:24:04;100422.88;;;7.07;100.00
48824;BME280;34640;53.590;10.054;2024-02-26T10:26:45;100418.28;;;7.03;100.00
48824;BME280;34640;53.590;10.054;2024-02-26T10:29:19;100424.41;;;7.17;100.00
48824;BME280;34640;53.590;10.054;2024-02-26T10:31:52;100433.47;;;7.23;100.00
48824;BME280;34640;53.590;10.054;2024-02-26T10:34:28;100437.56;;;7.33;100.00
48824;BME280;34640;53.590;10.054;2024-02-26T10:37:01;100439.19;;;7.44;100.00
48824;BME280;34640;53.590;10.054;2024-02-26T10:39:36;100439.19;;;7.57;100.00
48824;BME280;34640;53.590;10.054;2024-02-26T10:42:12;100432.53;;;7.48;100.00
48824;BME280;34640;53.590;10.054;2024-02-26T10:44:46;100442.78;;;7.46;100.00
48824;BME280;34640;53.590;10.054;2024-02-26T10:47:21;100434.91;;;7.58;100.00
48824;BME280;34640;53.590;10.054;2024-02-26T10:49:55;100442.91;;;7.74;100.00
48824;BME280;34640;53.590;10.054;2024-02-26T10:52:31;100440.22;;;7.86;100.00
48824;BME280;34640;53.590;10.054;2024-02-26T10:55:05;100450.66;;;8.01;100.00
48824;BME280;34640;53.590;10.054;2024-02-26T10:57:40;100440.63;;;7.92;100.00
48824;BME280;34640;53.590;10.054;2024-02-26T11:00:15;100442.91;;;7.87;100.00
48824;BME280;34640;53.590;10.054;2024-02-26T11:02:51;100444.13;;;8.06;100.00
48824;BME280;34640;53.590;10.054;2024-02-26T11:05:25;100445.19;;;8.09;100.00
48824;BME280;34640;53.590;10.054;2024-02-26T11:08:00;100452.56;;;8.16;100.00
48824;BME280;34640;53.590;10.054;2024-02-26T11:10:33;100448.19;;;8.15;100.00
48824;BME280;34640;53.590;10.054;2024-02-26T11:13:09;100448.59;;;8.08;100.00
48824;BME280;34640;53.590;10.054;2024-02-26T11:15:46;100442.41;;;7.93;100.00
48824;BME280;34640;53.590;10.054;2024-02-26T11:18:21;100446.78;;;7.94;100.00
48824;BME280;34640;53.590;10.054;2024-02-26T11:20:57;100442.09;;;8.15;100.00
48824;BME280;34640;53.590;10.054;2024-02-26T11:23:31;100443.78;;;8.27;100.00
48824;BME280;34640;53.590;10.054;2024-02-26T11:26:07;100445.47;;;8.40;100.00
48824;BME280;34640;53.590;10.054;2024-02-26T11:28:43;100451.06;;;8.46;100.00
48824;BME280;34640;53.590;10.054;2024-02-26T11:31:17;100452.25;;;8.51;100.00
48824;BME280;34640;53.590;10.054;2024-02-26T11:33:57;100447.34;;;8.43;100.00
48824;BME280;34640;53.590;10.054;2024-02-26T11:36:33;100450.84;;;8.43;100.00
48824;BME280;34640;53.590;10.054;2024-02-26T11:39:11;100453.25;;;8.40;100.00
48824;BME280;34640;53.590;10.054;2024-02-26T11:41:47;100459.94;;;8.23;100.00
48824;BME280;34640;53.590;10.054;2024-02-26T11:44:28;100459.97;;;8.10;100.00
48824;BME280;34640;53.590;10.054;2024-02-26T11:47:09;100459.75;;;7.94;100.00
48824;BME280;34640;53.590;10.054;2024-02-26T11:49:42;100466.13;;;7.99;100.00
48824;BME280;34640;53.590;10.054;2024-02-26T11:52:17;100468.34;;;8.06;100.00
48824;BME280;34640;53.590;10.054;2024-02-26T11:54:52;100471.13;;;8.09;100.00
48824;BME280;34640;53.590;10.054;2024-02-26T11:57:26;100469.91;;;8.17;100.00
48824;BME280;34640;53.590;10.054;2024-02-26T12:00:11;100471.00;;;8.21;100.00
48824;BME280;34640;53.590;10.054;2024-02-26T12:02:46;100481.28;;;8.19;100.00
48824;BME280;34640;53.590;10.054;2024-02-26T12:05:20;100475.19;;;8.45;100.00
48824;BME280;34640;53.590;10.054;2024-02-26T12:08:02;100480.66;;;8.63;100.00
48824;BME280;34640;53.590;10.054;2024-02-26T12:10:40;100481.72;;;8.80;100.00
48824;BME280;34640;53.590;10.054;2024-02-26T12:13:15;100473.38;;;8.85;100.00
48824;BME280;34640;53.590;10.054;2024-02-26T12:15:55;100481.97;;;8.84;100.00
48824;BME280;34640;53.590;10.054;2024-02-26T12:18:30;100479.25;;;8.96;100.00
48824;BME280;34640;53.590;10.054;2024-02-26T12:21:04;100482.38;;;8.91;100.00
48824;BME280;34640;53.590;10.054;2024-02-26T12:23:39;100484.81;;;9.02;100.00
48824;BME280;34640;53.590;10.054;2024-02-26T12:26:12;100487.78;;;9.08;100.00
48824;BME280;34640;53.590;10.054;2024-02-26T12:28:46;100495.72;;;8.97;100.00
48824;BME280;34640;53.590;10.054;2024-02-26T12:31:20;100487.88;;;9.10;100.00
48824;BME280;34640;53.590;10.054;2024-02-26T12:33:54;100496.63;;;8.97;100.00
48824;BME280;34640;53.590;10.054;2024-02-26T12:36:27;100497.38;;;9.09;100.00
48824;BME280;34640;53.590;10.054;2024-02-26T12:39:02;100508.00;;;8.99;100.00
48824;BME280;34640;53.590;10.054;2024-02-26T12:41:38;100515.91;;;9.01;100.00
48824;BME280;34640;53.590;10.054;2024-02-26T12:44:12;100510.06;;;8.77;100.00
48824;BME280;34640;53.590;10.054;2024-02-26T12:46:46;100510.78;;;8.74;100.00
48824;BME280;34640;53.590;10.054;2024-02-26T12:49:19;100518.66;;;8.76;100.00
48824;BME280;34640;53.590;10.054;2024-02-26T12:51:52;100518.78;;;8.64;100.00
48824;BME280;34640;53.590;10.054;2024-02-26T12:54:27;100527.28;;;8.62;100.00
48824;BME280;34640;53.590;10.054;2024-02-26T12:57:00;100523.16;;;8.78;100.00
48824;BME280;34640;53.590;10.054;2024-02-26T12:59:35;100527.63;;;8.81;100.00
48824;BME280;34640;53.590;10.054;2024-02-26T13:02:09;100533.53;;;9.06;100.00
48824;BME280;34640;53.590;10.054;2024-02-26T13:04:42;100544.19;;;8.96;100.00
48824;BME280;34640;53.590;10.054;2024-02-26T13:07:16;100539.28;;;8.87;100.00
48824;BME280;34640;53.590;10.054;2024-02-26T13:09:51;100547.13;;;8.74;100.00
48824;BME280;34640;53.590;10.054;2024-02-26T13:12:24;100552.50;;;8.77;100.00
48824;BME280;34640;53.590;10.054;2024-02-26T13:15:00;100542.09;;;8.91;100.00
48824;BME280;34640;53.590;10.054;2024-02-26T13:17:33;100543.09;;;8.93;100.00